Maersk Dispatcher — XJAJ — position and weather

sailwx.info

Track history (hours):
 
Tides and Currents Weather Stations Pressure Air Temp Water Temp Dewpoint Dewpoint Depression Visibility Wind Speed Wind Dir Waves Ship Positions

Maersk Dispatcher

Last reported at 2017-Jan-15 00:16 UTC. Time now 2017-Jan-20 18:13 UTC.
Position N 47°32' W 052°22'.

Length 89 m; draft 7 m.

Type: Other ship. MMSI: 316013080.

Date/timePositionNaut miles runAvg speedWind from/ knotsBaromVisibWave heightAir tempDewpointWater temp
2017-Jan-15 00:16N 47°32' W 052°22'1214.6
2017-Jan-14 23:26N 47°34' W 052°39'2 2.1
2017-Jan-14 22:33N 47°34' W 052°42'0 0.0
2017-Jan-14 21:15N 47°34' W 052°42'0 0.0
2017-Jan-14 20:33N 47°34' W 052°42'0 0.0
2017-Jan-14 19:27N 47°34' W 052°42'0 0.0
2017-Jan-14 17:21N 47°34' W 052°42'0 0.0
2017-Jan-14 16:33N 47°34' W 052°42'0 0.0
2017-Jan-14 15:27N 47°34' W 052°42'0 0.0
2017-Jan-14 14:27N 47°34' W 052°42'0 0.0
2017-Jan-14 13:33N 47°34' W 052°42'0 0.0
2017-Jan-14 12:30N 47°34' W 052°42'0 0.0
2017-Jan-14 11:33N 47°34' W 052°42'0 0.0
2017-Jan-14 10:30N 47°34' W 052°42'0 0.0
2017-Jan-14 09:33N 47°34' W 052°42'5 4.9
2017-Jan-14 08:29N 47°33' W 052°35'9 0.3
2017-Jan-12 22:32N 47°32' W 052°21'1413.4
2017-Jan-12 21:29N 47°34' W 052°41'0 0.4
2017-Jan-12 20:15N 47°34' W 052°42'0 0.0
2017-Jan-12 19:06N 47°34' W 052°42'0 0.0
2017-Jan-12 18:30N 47°34' W 052°42'0 0.0
2017-Jan-12 17:30N 47°34' W 052°42'0 0.0
2017-Jan-12 15:30N 47°34' W 052°42'0 0.0
2017-Jan-12 14:21N 47°34' W 052°42'0 0.0
2017-Jan-12 13:27N 47°34' W 052°42'0 0.0
2017-Jan-12 12:33N 47°34' W 052°42'0 0.0
2017-Jan-12 11:27N 47°34' W 052°42'0 0.0
2017-Jan-12 10:33N 47°34' W 052°42'0 0.0
2017-Jan-12 09:30N 47°34' W 052°42'6 5.9
2017-Jan-12 08:32N 47°33' W 052°34'7 0.2
2017-Jan-10 23:31N 47°32' W 052°23'1312.5
2017-Jan-10 22:29N 47°34' W 052°42'0 0.0
2017-Jan-10 21:32N 47°34' W 052°42'0 0.0
2017-Jan-10 20:28N 47°34' W 052°42'0 0.0
2017-Jan-10 19:31N 47°34' W 052°42'0 0.0
2017-Jan-10 18:19N 47°34' W 052°42'0 0.0
2017-Jan-10 17:13N 47°34' W 052°42'0 0.0
2017-Jan-10 16:31N 47°34' W 052°42'0 0.0
2017-Jan-10 15:28N 47°34' W 052°42'0 0.0
2017-Jan-10 14:28N 47°34' W 052°42'0 0.0
2017-Jan-10 13:31N 47°34' W 052°42'0 0.1
2017-Jan-10 12:28N 47°34' W 052°42'0 0.0
2017-Jan-10 11:28N 47°34' W 052°42'0 0.0
2017-Jan-10 10:28N 47°34' W 052°42'0 0.0
2017-Jan-10 09:28N 47°34' W 052°42'0 0.0
2017-Jan-10 08:28N 47°34' W 052°42'0 0.0
2017-Jan-10 07:28N 47°34' W 052°42'0 0.0
2017-Jan-10 06:28N 47°34' W 052°42'0 0.0
2017-Jan-10 05:28N 47°34' W 052°42'0 0.0
2017-Jan-10 04:31N 47°34' W 052°42'0 0.0
2017-Jan-10 03:28N 47°34' W 052°42'0 0.0
2017-Jan-10 02:28N 47°34' W 052°42'0 0.0
2017-Jan-10 01:31N 47°34' W 052°42'0 0.0
2017-Jan-10 00:28N 47°34' W 052°42'0 0.0
2017-Jan-09 23:28N 47°34' W 052°42'0 0.5
2017-Jan-09 22:28N 47°34' W 052°42'0 0.0
2017-Jan-09 21:28N 47°34' W 052°42'0 0.0
2017-Jan-09 20:28N 47°34' W 052°42'0 0.0
2017-Jan-09 19:28N 47°34' W 052°42'0 0.0
2017-Jan-09 18:28N 47°34' W 052°42'0 0.2
2017-Jan-09 16:29N 47°34' W 052°42'0 0.0
2017-Jan-09 05:20N 47°34' W 052°42'0 0.0
2017-Jan-08 19:11N 47°34' W 052°42'0 0.0
2017-Jan-08 17:29N 47°34' W 052°42'0 0.0
2017-Jan-08 15:26N 47°34' W 052°42'0 0.0
2017-Jan-08 14:23N 47°34' W 052°42'0 0.0
2017-Jan-08 13:26N 47°34' W 052°42'0 0.0
2017-Jan-08 12:17N 47°34' W 052°42'0 0.0
2017-Jan-08 10:11N 47°34' W 052°42'0 0.0
2017-Jan-08 09:32N 47°34' W 052°42'0 0.0
2017-Jan-08 08:29N 47°34' W 052°42'0 0.0
2017-Jan-08 07:32N 47°34' W 052°42'0 0.0
2017-Jan-08 06:32N 47°34' W 052°42'0 0.0
2017-Jan-08 05:32N 47°34' W 052°42'0 0.0
2017-Jan-08 04:29N 47°34' W 052°42'0 0.0
2017-Jan-08 03:29N 47°34' W 052°42'0 0.0
2017-Jan-08 02:32N 47°34' W 052°42'0 0.0
2017-Jan-07 20:18N 47°34' W 052°42'  
Track history (hours):
 
Tides and Currents Weather Stations Pressure Air Temp Water Temp Dewpoint Dewpoint Depression Visibility Wind Speed Wind Dir Waves Ship Positions

Maersk Dispatcher

Last reported at 2017-Jan-15 00:16 UTC. Time now 2017-Jan-20 18:13 UTC.
Position N 47°32' W 052°22'.

Length 89 m; draft 7 m.

Type: Other ship. MMSI: 316013080.

Date/timePositionNaut miles runAvg speedWind from/ knotsBaromVisibWave heightAir tempDewpointWater temp
2017-Jan-15 00:16N 47°32' W 052°22'1214.6
2017-Jan-14 23:26N 47°34' W 052°39'2 2.1
2017-Jan-14 22:33N 47°34' W 052°42'0 0.0
2017-Jan-14 21:15N 47°34' W 052°42'0 0.0
2017-Jan-14 20:33N 47°34' W 052°42'0 0.0
2017-Jan-14 19:27N 47°34' W 052°42'0 0.0
2017-Jan-14 17:21N 47°34' W 052°42'0 0.0
2017-Jan-14 16:33N 47°34' W 052°42'0 0.0
2017-Jan-14 15:27N 47°34' W 052°42'0 0.0
2017-Jan-14 14:27N 47°34' W 052°42'0 0.0
2017-Jan-14 13:33N 47°34' W 052°42'0 0.0
2017-Jan-14 12:30N 47°34' W 052°42'0 0.0
2017-Jan-14 11:33N 47°34' W 052°42'0 0.0
2017-Jan-14 10:30N 47°34' W 052°42'0 0.0
2017-Jan-14 09:33N 47°34' W 052°42'5 4.9
2017-Jan-14 08:29N 47°33' W 052°35'9 0.3
2017-Jan-12 22:32N 47°32' W 052°21'1413.4
2017-Jan-12 21:29N 47°34' W 052°41'0 0.4
2017-Jan-12 20:15N 47°34' W 052°42'0 0.0
2017-Jan-12 19:06N 47°34' W 052°42'0 0.0
2017-Jan-12 18:30N 47°34' W 052°42'0 0.0
2017-Jan-12 17:30N 47°34' W 052°42'0 0.0
2017-Jan-12 15:30N 47°34' W 052°42'0 0.0
2017-Jan-12 14:21N 47°34' W 052°42'0 0.0
2017-Jan-12 13:27N 47°34' W 052°42'0 0.0
2017-Jan-12 12:33N 47°34' W 052°42'0 0.0
2017-Jan-12 11:27N 47°34' W 052°42'0 0.0
2017-Jan-12 10:33N 47°34' W 052°42'0 0.0
2017-Jan-12 09:30N 47°34' W 052°42'6 5.9
2017-Jan-12 08:32N 47°33' W 052°34'7 0.2
2017-Jan-10 23:31N 47°32' W 052°23'1312.5
2017-Jan-10 22:29N 47°34' W 052°42'0 0.0
2017-Jan-10 21:32N 47°34' W 052°42'0 0.0
2017-Jan-10 20:28N 47°34' W 052°42'0 0.0
2017-Jan-10 19:31N 47°34' W 052°42'0 0.0
2017-Jan-10 18:19N 47°34' W 052°42'0 0.0
2017-Jan-10 17:13N 47°34' W 052°42'0 0.0
2017-Jan-10 16:31N 47°34' W 052°42'0 0.0
2017-Jan-10 15:28N 47°34' W 052°42'0 0.0
2017-Jan-10 14:28N 47°34' W 052°42'0 0.0
2017-Jan-10 13:31N 47°34' W 052°42'0 0.1
2017-Jan-10 12:28N 47°34' W 052°42'0 0.0
2017-Jan-10 11:28N 47°34' W 052°42'0 0.0
2017-Jan-10 10:28N 47°34' W 052°42'0 0.0
2017-Jan-10 09:28N 47°34' W 052°42'0 0.0
2017-Jan-10 08:28N 47°34' W 052°42'0 0.0
2017-Jan-10 07:28N 47°34' W 052°42'0 0.0
2017-Jan-10 06:28N 47°34' W 052°42'0 0.0
2017-Jan-10 05:28N 47°34' W 052°42'0 0.0
2017-Jan-10 04:31N 47°34' W 052°42'0 0.0
2017-Jan-10 03:28N 47°34' W 052°42'0 0.0
2017-Jan-10 02:28N 47°34' W 052°42'0 0.0
2017-Jan-10 01:31N 47°34' W 052°42'0 0.0
2017-Jan-10 00:28N 47°34' W 052°42'0 0.0
2017-Jan-09 23:28N 47°34' W 052°42'0 0.5
2017-Jan-09 22:28N 47°34' W 052°42'0 0.0
2017-Jan-09 21:28N 47°34' W 052°42'0 0.0
2017-Jan-09 20:28N 47°34' W 052°42'0 0.0
2017-Jan-09 19:28N 47°34' W 052°42'0 0.0
2017-Jan-09 18:28N 47°34' W 052°42'0 0.2
2017-Jan-09 16:29N 47°34' W 052°42'0 0.0
2017-Jan-09 05:20N 47°34' W 052°42'0 0.0
2017-Jan-08 19:11N 47°34' W 052°42'0 0.0
2017-Jan-08 17:29N 47°34' W 052°42'0 0.0
2017-Jan-08 15:26N 47°34' W 052°42'0 0.0
2017-Jan-08 14:23N 47°34' W 052°42'0 0.0
2017-Jan-08 13:26N 47°34' W 052°42'0 0.0
2017-Jan-08 12:17N 47°34' W 052°42'0 0.0
2017-Jan-08 10:11N 47°34' W 052°42'0 0.0
2017-Jan-08 09:32N 47°34' W 052°42'0 0.0
2017-Jan-08 08:29N 47°34' W 052°42'0 0.0
2017-Jan-08 07:32N 47°34' W 052°42'0 0.0
2017-Jan-08 06:32N 47°34' W 052°42'0 0.0
2017-Jan-08 05:32N 47°34' W 052°42'0 0.0
2017-Jan-08 04:29N 47°34' W 052°42'0 0.0
2017-Jan-08 03:29N 47°34' W 052°42'0 0.0
2017-Jan-08 02:32N 47°34' W 052°42'0 0.0
2017-Jan-07 20:18N 47°34' W 052°42'  

Dump ship's entire track history